createdAt,value
2022-09-09T00:02:08.563Z,12.75
2022-09-09T00:04:39.342Z,12.75
2022-09-09T00:07:07.489Z,12.73
2022-09-09T00:09:47.002Z,12.77
2022-09-09T00:12:17.267Z,12.67
2022-09-09T00:15:28.491Z,12.66
2022-09-09T00:18:02.334Z,12.68
2022-09-09T00:20:55.672Z,12.65
2022-09-09T00:23:26.760Z,12.61
2022-09-09T00:26:05.532Z,12.80
2022-09-09T00:28:35.306Z,12.71
2022-09-09T00:31:19.377Z,12.85
2022-09-09T00:33:46.843Z,12.85
2022-09-09T00:36:16.721Z,12.80
2022-09-09T00:38:46.989Z,12.99
2022-09-09T00:41:29.065Z,12.90
2022-09-09T00:44:01.786Z,13.11
2022-09-09T00:46:35.324Z,13.09
2022-09-09T00:49:11.082Z,13.05
2022-09-09T00:52:01.837Z,13.26
2022-09-09T00:54:37.896Z,13.32
2022-09-09T00:57:12.658Z,13.27
2022-09-09T00:59:54.108Z,13.15
2022-09-09T01:02:33.428Z,13.03
2022-09-09T01:05:07.039Z,13.07
2022-09-09T01:07:33.951Z,13.18
2022-09-09T01:10:02.095Z,13.35
2022-09-09T01:12:44.651Z,13.43
2022-09-09T01:15:25.787Z,13.41
2022-09-09T01:17:56.455Z,13.47
2022-09-09T01:21:14.341Z,13.43
2022-09-09T01:23:41.065Z,13.44
2022-09-09T01:26:38.004Z,13.27
2022-09-09T01:29:19.166Z,13.53
2022-09-09T01:31:56.874Z,13.47
2022-09-09T01:34:26.447Z,13.44
2022-09-09T01:37:10.628Z,13.37
2022-09-09T01:39:40.196Z,13.17
2022-09-09T01:42:12.277Z,13.12
2022-09-09T01:44:41.336Z,13.07
2022-09-09T01:47:08.839Z,13.08
2022-09-09T01:49:43.306Z,12.95
2022-09-09T01:52:19.926Z,13.05
2022-09-09T01:54:46.735Z,13.05
2022-09-09T01:57:29.644Z,13.04
2022-09-09T02:00:12.583Z,12.99
2022-09-09T02:02:45.688Z,13.07
2022-09-09T02:05:28.971Z,13.01
2022-09-09T02:08:08.245Z,13.31
2022-09-09T02:11:20.473Z,13.69
2022-09-09T02:14:23.169Z,13.64
2022-09-09T02:16:56.413Z,13.66
2022-09-09T02:19:33.089Z,13.80
2022-09-09T02:22:06.479Z,13.90
2022-09-09T02:24:36.380Z,13.88
2022-09-09T02:27:23.866Z,13.92
2022-09-09T02:29:52.499Z,13.97
2022-09-09T02:32:26.584Z,13.83
2022-09-09T02:34:57.614Z,13.76
2022-09-09T02:37:29.511Z,13.64
2022-09-09T02:40:01.730Z,13.63
2022-09-09T02:42:29.466Z,13.80
2022-09-09T02:44:58.029Z,13.79
2022-09-09T02:47:35.954Z,13.83
2022-09-09T02:50:22.113Z,13.95
2022-09-09T02:53:14.167Z,13.91
2022-09-09T02:55:47.866Z,13.98
2022-09-09T02:58:20.594Z,14.11
2022-09-09T03:01:04.381Z,14.09
2022-09-09T03:03:32.294Z,14.01
2022-09-09T03:06:01.115Z,14.11
2022-09-09T03:08:28.743Z,14.02
2022-09-09T03:10:59.844Z,14.02
2022-09-09T03:13:28.427Z,14.11
2022-09-09T03:15:55.006Z,14.09
2022-09-09T03:18:22.184Z,14.14
2022-09-09T03:20:52.106Z,14.08
2022-09-09T03:23:20.350Z,14.04
2022-09-09T03:25:51.177Z,13.99
2022-09-09T03:28:21.903Z,14.09
2022-09-09T03:30:50.165Z,14.21
2022-09-09T03:33:19.588Z,14.13
2022-09-09T03:35:50.402Z,13.99
2022-09-09T03:38:19.164Z,13.88
2022-09-09T03:40:58.356Z,13.82
2022-09-09T03:43:26.651Z,13.76
2022-09-09T03:45:57.812Z,13.68
2022-09-09T03:48:26.779Z,13.71
2022-09-09T03:50:54.150Z,13.68
2022-09-09T03:53:22.706Z,13.62
2022-09-09T03:55:53.598Z,13.53
2022-09-09T03:58:20.193Z,13.45
2022-09-09T04:01:01.112Z,13.42
2022-09-09T04:03:28.700Z,13.39
2022-09-09T04:05:57.526Z,13.34
2022-09-09T04:08:28.983Z,13.32
2022-09-09T04:10:58.764Z,13.27
2022-09-09T04:13:27.341Z,13.22
2022-09-09T04:15:56.125Z,13.24
2022-09-09T04:18:25.156Z,13.33
2022-09-09T04:20:53.349Z,13.32
2022-09-09T04:23:22.848Z,13.25
2022-09-09T04:26:01.864Z,13.21
2022-09-09T04:28:32.080Z,13.17
2022-09-09T04:31:08.795Z,13.12
2022-09-09T04:33:40.197Z,13.10
2022-09-09T04:36:08.998Z,13.09
2022-09-09T04:38:36.091Z,13.05
2022-09-09T04:41:03.668Z,13.07
2022-09-09T04:43:31.738Z,13.02
2022-09-09T04:46:00.376Z,13.00
2022-09-09T04:48:27.427Z,12.98
2022-09-09T04:51:01.266Z,12.97
2022-09-09T04:53:29.465Z,12.93
2022-09-09T04:56:16.725Z,13.05
2022-09-09T04:58:56.400Z,12.97
2022-09-09T05:01:28.229Z,12.91
2022-09-09T05:04:01.745Z,12.94
2022-09-09T05:06:28.315Z,12.90
2022-09-09T05:09:00.727Z,12.94
2022-09-09T05:11:33.214Z,12.94
2022-09-09T05:14:19.942Z,12.99
2022-09-09T05:16:48.068Z,13.20
2022-09-09T05:19:15.084Z,13.19
2022-09-09T05:21:47.589Z,13.25
2022-09-09T05:24:17.831Z,13.30
2022-09-09T05:26:46.198Z,13.29
2022-09-09T05:29:13.114Z,13.31
2022-09-09T05:31:40.278Z,13.29
2022-09-09T05:34:11.099Z,13.36
2022-09-09T05:36:37.794Z,13.42
2022-09-09T05:39:04.690Z,13.44
2022-09-09T05:41:34.917Z,13.46
2022-09-09T05:44:04.464Z,13.61
2022-09-09T05:46:35.642Z,13.57
2022-09-09T05:49:03.952Z,13.57
2022-09-09T05:51:32.589Z,13.57
2022-09-09T05:54:04.788Z,13.65
2022-09-09T05:56:34.817Z,13.68
2022-09-09T05:59:01.955Z,13.76
2022-09-09T06:01:39.331Z,13.87
2022-09-09T06:04:06.242Z,13.87
2022-09-09T06:06:39.431Z,13.93
2022-09-09T06:09:12.400Z,13.89
2022-09-09T06:11:42.439Z,13.97
2022-09-09T06:14:09.702Z,14.16
2022-09-09T06:16:40.200Z,14.25
2022-09-09T06:19:13.909Z,14.74
2022-09-09T06:21:41.852Z,15.00
2022-09-09T06:24:14.649Z,15.20
2022-09-09T06:26:42.133Z,15.87
2022-09-09T06:29:11.536Z,16.35
2022-09-09T06:31:42.397Z,17.00
2022-09-09T06:34:24.126Z,17.34
2022-09-09T06:36:54.730Z,17.43
2022-09-09T06:39:22.528Z,17.60
2022-09-09T06:41:49.560Z,17.28
2022-09-09T06:44:54.628Z,17.56
2022-09-09T06:47:29.802Z,18.03
2022-09-09T06:49:58.098Z,18.33
2022-09-09T06:52:25.917Z,18.58
2022-09-09T06:54:54.719Z,18.70
2022-09-09T06:57:38.421Z,18.48
2022-09-09T07:00:11.807Z,18.27
2022-09-09T07:02:40.084Z,17.96
2022-09-09T07:05:10.436Z,18.32
2022-09-09T07:07:37.898Z,18.61
2022-09-09T07:10:05.807Z,18.90
2022-09-09T07:12:32.544Z,18.83
2022-09-09T07:15:01.221Z,19.17
2022-09-09T07:17:29.304Z,18.95
2022-09-09T07:19:57.807Z,19.16
2022-09-09T07:22:24.484Z,18.95
2022-09-09T07:24:51.289Z,19.00
2022-09-09T07:27:20.500Z,18.79
2022-09-09T07:29:49.154Z,18.98
2022-09-09T07:32:16.342Z,19.14
2022-09-09T07:34:43.694Z,19.25
2022-09-09T07:37:12.721Z,19.51
2022-09-09T07:39:42.109Z,19.32
2022-09-09T07:42:12.105Z,19.52
2022-09-09T07:44:40.562Z,19.70
2022-09-09T07:47:11.331Z,19.30
2022-09-09T07:49:47.164Z,19.89
2022-09-09T07:52:19.585Z,20.14
2022-09-09T07:54:49.937Z,19.52
2022-09-09T07:57:19.467Z,20.35
2022-09-09T07:59:47.633Z,20.14
2022-09-09T08:02:14.504Z,21.03
2022-09-09T08:04:41.477Z,20.69
2022-09-09T08:07:08.254Z,20.33
2022-09-09T08:09:44.831Z,20.14
2022-09-09T08:12:17.777Z,19.51
2022-09-09T08:14:44.633Z,19.29
2022-09-09T08:17:11.327Z,18.30
2022-09-09T08:19:38.475Z,18.45
2022-09-09T08:22:10.542Z,18.63
2022-09-09T08:24:40.291Z,18.99
2022-09-09T08:27:14.992Z,18.70
2022-09-09T08:29:42.153Z,18.44
2022-09-09T08:32:09.717Z,18.54
2022-09-09T08:34:41.234Z,18.98
2022-09-09T08:37:12.126Z,18.99
2022-09-09T08:39:41.128Z,19.25
2022-09-09T08:42:29.360Z,18.77
2022-09-09T08:45:03.307Z,18.78
2022-09-09T08:47:50.324Z,18.51
2022-09-09T08:50:28.978Z,18.92
2022-09-09T08:53:08.930Z,19.05
2022-09-09T08:55:46.788Z,19.32
2022-09-09T08:58:21.581Z,19.06
2022-09-09T09:01:09.218Z,19.29
2022-09-09T09:03:51.557Z,19.14
2022-09-09T09:06:39.695Z,18.74
2022-09-09T09:09:31.397Z,19.35
2022-09-09T09:12:02.462Z,19.36
2022-09-09T09:14:36.628Z,19.11
2022-09-09T09:17:16.222Z,19.50
2022-09-09T09:19:44.400Z,19.87
2022-09-09T09:22:41.401Z,19.77
2022-09-09T09:25:19.012Z,20.06
2022-09-09T09:28:02.506Z,19.29
2022-09-09T09:30:36.411Z,19.52
2022-09-09T09:33:15.412Z,19.45
2022-09-09T09:35:44.313Z,19.54
2022-09-09T09:41:08.071Z,19.72
2022-09-09T09:43:38.217Z,19.44
2022-09-09T09:46:24.529Z,19.44
2022-09-09T09:49:07.458Z,19.30
2022-09-09T09:51:35.462Z,18.89
2022-09-09T09:54:14.335Z,19.17
2022-09-09T09:56:42.394Z,18.54
2022-09-09T09:59:38.828Z,18.34
2022-09-09T10:02:19.498Z,18.75
2022-09-09T10:04:50.282Z,19.13
2022-09-09T10:07:20.080Z,19.29
2022-09-09T10:09:58.779Z,19.67
2022-09-09T10:12:47.687Z,20.24
2022-09-09T10:15:44.832Z,20.59
2022-09-09T10:18:34.477Z,20.92
2022-09-09T10:21:28.845Z,21.09
2022-09-09T10:24:08.394Z,20.97
2022-09-09T10:26:45.995Z,21.32
2022-09-09T10:29:45.607Z,21.61
2022-09-09T10:32:41.146Z,21.83
2022-09-09T10:35:37.771Z,21.53
2022-09-09T10:38:18.125Z,21.89
2022-09-09T10:40:49.723Z,20.65
2022-09-09T10:43:23.125Z,19.93
2022-09-09T10:46:00.320Z,19.91
2022-09-09T10:48:32.978Z,19.52
2022-09-09T10:51:21.380Z,19.38
2022-09-09T10:53:59.106Z,18.86
2022-09-09T10:56:27.498Z,19.29
2022-09-09T10:59:04.472Z,19.26
2022-09-09T11:01:53.574Z,19.20
2022-09-09T11:04:23.922Z,19.73
2022-09-09T11:06:55.322Z,19.36
2022-09-09T11:09:30.566Z,19.50
2022-09-09T11:11:58.374Z,19.64
2022-09-09T11:14:34.048Z,19.49
2022-09-09T11:17:17.877Z,20.14
2022-09-09T11:19:45.292Z,20.59
2022-09-09T11:22:34.680Z,20.71
2022-09-09T11:25:16.783Z,20.24
2022-09-09T11:28:07.334Z,20.64
2022-09-09T11:30:56.438Z,20.51
2022-09-09T11:33:48.155Z,20.13
2022-09-09T11:36:17.689Z,20.37
2022-09-09T11:38:47.944Z,20.36
2022-09-09T11:41:20.898Z,21.03
2022-09-09T11:43:53.283Z,21.22
2022-09-09T11:46:22.636Z,21.04
2022-09-09T11:49:03.289Z,21.22
2022-09-09T11:51:36.772Z,21.15
2022-09-09T11:54:31.053Z,21.66
2022-09-09T11:57:00.724Z,21.23
2022-09-09T11:59:32.281Z,20.80
2022-09-09T12:02:04.401Z,20.82
2022-09-09T12:04:34.338Z,20.87
2022-09-09T12:07:20.794Z,20.83
2022-09-09T12:10:00.841Z,21.32
2022-09-09T12:12:47.634Z,21.21
2022-09-09T12:15:17.174Z,21.50
2022-09-09T12:17:51.683Z,21.59
2022-09-09T12:20:23.481Z,21.29
2022-09-09T12:23:00.874Z,21.40
2022-09-09T12:25:37.018Z,21.62
2022-09-09T12:28:17.553Z,20.31
2022-09-09T12:30:50.279Z,20.17
2022-09-09T12:33:20.076Z,20.12
2022-09-09T12:36:01.568Z,20.08
2022-09-09T12:38:35.236Z,20.61
2022-09-09T12:41:02.131Z,21.21
2022-09-09T12:43:29.266Z,21.43
2022-09-09T12:46:04.619Z,20.95
2022-09-09T12:48:38.124Z,21.38
2022-09-09T12:51:06.875Z,21.15
2022-09-09T12:53:35.899Z,21.10
2022-09-09T12:56:05.628Z,21.33
2022-09-09T12:58:35.793Z,21.29
2022-09-09T13:01:06.071Z,20.89
2022-09-09T13:03:34.250Z,20.97
2022-09-09T13:06:13.973Z,21.31
2022-09-09T13:08:44.454Z,20.99
2022-09-09T13:11:16.510Z,20.99
2022-09-09T13:13:43.607Z,20.72
2022-09-09T13:16:24.047Z,20.31
2022-09-09T13:18:50.824Z,20.02
2022-09-09T13:21:17.986Z,19.80
2022-09-09T13:23:50.199Z,19.70
2022-09-09T13:26:23.707Z,19.67
2022-09-09T13:28:50.590Z,19.85
2022-09-09T13:31:40.143Z,19.68
2022-09-09T13:34:28.387Z,19.36
2022-09-09T13:37:00.579Z,19.42
2022-09-09T13:39:27.195Z,19.35
2022-09-09T13:41:54.211Z,19.34
2022-09-09T13:44:28.515Z,19.53
2022-09-09T13:47:24.498Z,19.70
2022-09-09T13:49:51.199Z,19.67
2022-09-09T13:52:19.772Z,19.78
2022-09-09T13:54:50.870Z,19.88
2022-09-09T13:57:26.089Z,20.02
2022-09-09T14:00:06.294Z,20.03
2022-09-09T14:02:33.754Z,20.37
2022-09-09T14:05:00.465Z,20.48
2022-09-09T14:07:27.759Z,20.29
2022-09-09T14:09:54.523Z,20.15
2022-09-09T14:12:21.220Z,20.13
2022-09-09T14:14:47.872Z,19.51
2022-09-09T14:17:15.438Z,19.46
2022-09-09T14:19:42.007Z,19.59
2022-09-09T14:22:08.706Z,20.20
2022-09-09T14:24:35.388Z,20.95
2022-09-09T14:27:02.118Z,21.43
2022-09-09T14:29:28.695Z,21.80
2022-09-09T14:31:55.403Z,21.54
2022-09-09T14:34:22.092Z,21.25
2022-09-09T14:36:52.464Z,21.33
2022-09-09T14:39:19.269Z,21.55
2022-09-09T14:41:46.732Z,21.26
2022-09-09T14:44:13.398Z,21.57
2022-09-09T14:46:39.989Z,21.20
2022-09-09T14:49:06.662Z,21.13
2022-09-09T14:51:33.321Z,21.62
2022-09-09T14:54:00.491Z,21.67
2022-09-09T14:56:30.149Z,21.56
2022-09-09T14:58:58.353Z,21.62
2022-09-09T15:01:30.253Z,21.32
2022-09-09T15:04:01.711Z,21.49
2022-09-09T15:06:31.025Z,21.45
2022-09-09T15:09:00.406Z,21.38
2022-09-09T15:11:28.928Z,21.64
2022-09-09T15:13:55.682Z,21.47
2022-09-09T15:16:24.976Z,21.45
2022-09-09T15:18:54.073Z,21.24
2022-09-09T15:21:23.411Z,20.75
2022-09-09T15:23:50.743Z,20.58
2022-09-09T15:26:18.052Z,20.54
2022-09-09T15:28:45.968Z,20.30
2022-09-09T15:31:20.809Z,20.13
2022-09-09T15:34:01.406Z,20.05
2022-09-09T15:36:39.192Z,19.92
2022-09-09T15:39:08.742Z,19.76
2022-09-09T15:41:35.655Z,19.74
2022-09-09T15:44:02.645Z,19.70
2022-09-09T15:46:41.481Z,19.65
2022-09-09T15:49:18.678Z,19.70
2022-09-09T15:51:47.313Z,19.55
2022-09-09T15:54:19.173Z,19.35
2022-09-09T15:56:48.892Z,19.40
2022-09-09T15:59:15.811Z,19.34
2022-09-09T16:01:43.978Z,19.37
2022-09-09T16:04:11.189Z,19.38
2022-09-09T16:06:37.897Z,19.60
2022-09-09T16:09:08.668Z,19.81
2022-09-09T16:11:38.019Z,19.88
2022-09-09T16:14:06.312Z,20.15
2022-09-09T16:16:33.212Z,20.13
2022-09-09T16:19:02.248Z,20.13
2022-09-09T16:21:31.643Z,19.93
2022-09-09T16:24:08.650Z,19.86
2022-09-09T16:26:37.782Z,19.80
2022-09-09T16:29:04.598Z,19.71
2022-09-09T16:31:33.160Z,19.75
2022-09-09T16:34:00.031Z,19.59
2022-09-09T16:36:29.359Z,19.49
2022-09-09T16:38:58.427Z,19.44
2022-09-09T16:41:26.737Z,19.14
2022-09-09T16:43:58.153Z,18.94
2022-09-09T16:46:25.491Z,18.84
2022-09-09T16:48:52.968Z,18.64
2022-09-09T16:51:37.885Z,18.53
2022-09-09T16:54:09.846Z,18.37
2022-09-09T16:56:39.122Z,18.17
2022-09-09T16:59:08.708Z,17.98
2022-09-09T17:01:38.504Z,17.89
2022-09-09T17:04:08.384Z,17.78
2022-09-09T17:06:35.628Z,17.71
2022-09-09T17:09:05.673Z,17.55
2022-09-09T17:11:32.349Z,17.42
2022-09-09T17:14:01.652Z,17.32
2022-09-09T17:16:32.224Z,17.31
2022-09-09T17:19:04.167Z,17.26
2022-09-09T17:21:31.841Z,17.09
2022-09-09T17:23:59.092Z,16.65
2022-09-09T17:26:28.659Z,16.50
2022-09-09T17:28:59.441Z,16.05
2022-09-09T17:31:28.474Z,15.74
2022-09-09T17:33:55.725Z,15.32
2022-09-09T17:36:25.501Z,15.44
2022-09-09T17:38:52.881Z,15.32
2022-09-09T17:41:27.695Z,15.06
2022-09-09T17:43:55.477Z,14.93
2022-09-09T17:46:23.747Z,14.85
2022-09-09T17:48:56.864Z,14.81
2022-09-09T17:51:25.956Z,14.78
2022-09-09T17:53:55.770Z,14.62
2022-09-09T17:56:23.736Z,14.37
2022-09-09T17:58:50.885Z,14.20
2022-09-09T18:01:23.156Z,14.20
2022-09-09T18:03:51.004Z,14.09
2022-09-09T18:06:24.203Z,14.02
2022-09-09T18:08:53.046Z,14.12
2022-09-09T18:11:21.668Z,14.17
2022-09-09T18:13:56.730Z,14.23
2022-09-09T18:16:24.770Z,14.37
2022-09-09T18:18:51.874Z,14.29
2022-09-09T18:21:20.148Z,14.19
2022-09-09T18:23:49.447Z,14.13
2022-09-09T18:26:19.086Z,14.27
2022-09-09T18:28:49.711Z,14.26
2022-09-09T18:31:19.035Z,14.24
2022-09-09T18:33:46.935Z,14.24
2022-09-09T18:36:17.027Z,14.25
2022-09-09T18:38:46.874Z,14.20
2022-09-09T18:41:13.613Z,14.17
2022-09-09T18:43:40.189Z,14.27
2022-09-09T18:46:07.031Z,14.31
2022-09-09T18:48:33.927Z,14.28
2022-09-09T18:51:10.689Z,14.27
2022-09-09T18:53:37.635Z,14.43
2022-09-09T18:56:06.334Z,14.35
2022-09-09T18:58:33.997Z,14.32
2022-09-09T19:01:01.668Z,14.24
2022-09-09T19:03:30.209Z,14.19
2022-09-09T19:06:07.481Z,14.22
2022-09-09T19:08:34.906Z,14.10
2022-09-09T19:11:03.005Z,14.06
2022-09-09T19:13:29.764Z,14.00
2022-09-09T19:15:56.500Z,13.97
2022-09-09T19:18:23.797Z,13.92
2022-09-09T19:20:50.396Z,13.92
2022-09-09T19:23:16.981Z,13.83
2022-09-09T19:25:43.605Z,13.84
2022-09-09T19:28:10.165Z,13.88
2022-09-09T19:30:38.711Z,13.82
2022-09-09T19:33:08.277Z,13.89
2022-09-09T19:35:34.881Z,13.89
2022-09-09T19:38:01.780Z,13.88
2022-09-09T19:40:29.295Z,13.87
2022-09-09T19:42:59.412Z,13.90
2022-09-09T19:45:27.615Z,13.84
2022-09-09T19:47:54.482Z,13.83
2022-09-09T19:50:21.075Z,13.84
2022-09-09T19:52:48.359Z,13.83
2022-09-09T19:55:15.041Z,13.85
2022-09-09T19:57:43.946Z,13.79
2022-09-09T20:00:11.427Z,13.81
2022-09-09T20:02:40.657Z,13.76
2022-09-09T20:05:07.790Z,13.74
2022-09-09T20:07:37.514Z,13.74
2022-09-09T20:10:04.391Z,13.72
2022-09-09T20:12:31.031Z,13.73
2022-09-09T20:14:57.613Z,13.73
2022-09-09T20:17:34.640Z,13.65
2022-09-09T20:20:03.990Z,13.65
2022-09-09T20:22:30.579Z,13.60
2022-09-09T20:24:59.470Z,13.58
2022-09-09T20:27:28.385Z,13.49
2022-09-09T20:29:56.510Z,13.48
2022-09-09T20:32:27.758Z,13.44
2022-09-09T20:34:58.024Z,13.40
2022-09-09T20:37:34.728Z,13.35
2022-09-09T20:40:09.174Z,13.33
2022-09-09T20:42:35.802Z,13.32
2022-09-09T20:45:02.466Z,13.32
2022-09-09T20:47:30.286Z,13.30
2022-09-09T20:50:01.739Z,13.36
2022-09-09T20:52:28.425Z,13.33
2022-09-09T20:54:57.253Z,13.32
2022-09-09T20:57:24.488Z,13.32
2022-09-09T21:00:04.037Z,13.29
2022-09-09T21:02:30.670Z,13.28
2022-09-09T21:04:57.315Z,13.40
2022-09-09T21:07:23.903Z,13.33
2022-09-09T21:09:50.495Z,13.38
2022-09-09T21:12:17.040Z,13.48
2022-09-09T21:14:43.617Z,13.49
2022-09-09T21:17:10.283Z,13.49
2022-09-09T21:19:37.590Z,13.48
2022-09-09T21:22:04.215Z,13.44
2022-09-09T21:24:30.875Z,13.40
2022-09-09T21:26:57.498Z,13.39
2022-09-09T21:29:24.256Z,13.35
2022-09-09T21:31:50.845Z,13.35
2022-09-09T21:34:18.401Z,13.31
2022-09-09T21:36:44.968Z,13.25
2022-09-09T21:39:11.583Z,13.29
2022-09-09T21:41:38.300Z,13.20
2022-09-09T21:44:04.899Z,13.16
2022-09-09T21:46:31.832Z,13.12
2022-09-09T21:48:58.509Z,13.06
2022-09-09T21:51:25.150Z,13.05
2022-09-09T21:53:55.037Z,13.00
2022-09-09T21:56:21.689Z,13.02
2022-09-09T21:58:48.288Z,13.05
2022-09-09T22:01:17.736Z,13.12
2022-09-09T22:03:45.212Z,13.18
2022-09-09T22:06:14.323Z,13.22
2022-09-09T22:08:40.908Z,13.35
2022-09-09T22:11:09.334Z,13.32
2022-09-09T22:13:38.299Z,13.37
2022-09-09T22:16:06.562Z,13.38
2022-09-09T22:18:34.620Z,13.49
2022-09-09T22:21:06.552Z,13.48
2022-09-09T22:23:33.165Z,13.41
2022-09-09T22:26:00.038Z,13.38
2022-09-09T22:28:26.683Z,13.33
2022-09-09T22:30:53.318Z,13.32
2022-09-09T22:33:21.588Z,13.30
2022-09-09T22:35:50.626Z,13.27
2022-09-09T22:38:17.282Z,13.21
2022-09-09T22:40:57.687Z,13.22
2022-09-09T22:43:25.096Z,13.31
2022-09-09T22:45:51.798Z,13.27
2022-09-09T22:48:18.719Z,13.26
2022-09-09T22:50:46.973Z,13.27
2022-09-09T22:53:17.911Z,13.26
2022-09-09T22:55:57.397Z,13.34
2022-09-09T22:58:26.469Z,13.36
2022-09-09T23:00:53.127Z,13.37
2022-09-09T23:03:22.513Z,13.31
2022-09-09T23:06:10.063Z,13.30
2022-09-09T23:08:37.788Z,13.32
2022-09-09T23:11:09.334Z,13.34
2022-09-09T23:13:39.933Z,13.42
2022-09-09T23:16:17.339Z,13.44
2022-09-09T23:18:44.301Z,13.42
2022-09-09T23:21:12.308Z,13.41
2022-09-09T23:23:41.250Z,13.39
2022-09-09T23:26:09.734Z,13.37
2022-09-09T23:28:38.448Z,13.34
2022-09-09T23:31:10.607Z,13.44
2022-09-09T23:33:41.415Z,13.44
2022-09-09T23:36:11.614Z,13.45
2022-09-09T23:38:39.372Z,13.43
2022-09-09T23:41:09.496Z,13.41
2022-09-09T23:43:39.471Z,13.44
2022-09-09T23:46:17.290Z,13.51
2022-09-09T23:48:44.038Z,13.53
2022-09-09T23:51:17.668Z,13.50
2022-09-09T23:53:45.642Z,13.49
2022-09-09T23:56:12.625Z,13.47
2022-09-09T23:58:39.434Z,13.53
